UAE3HJ YSSY-NZCH
Flight info
| Callsign | UAE3HJ |
|---|---|
| Flight time | 2h 40m |
| Altitude | 39000 |
| Route | CAWLY M636 PLUGA N750 VANDA |
| Aircraft | A388/J-SADE2E3FGHIJ3J4J5M1RWXY/LB1D1 |
Departure
| Time | 2026-04-30 06:08 |
|---|---|
| Airport | Sydney Kingsford Smith International Airport (YSSY) |
Arrival
| Time | 2026-04-30 08:49 |
|---|---|
| Airport | Christchurch International Airport (NZCH) |
| Time | Latitude | Longitude | Altitude | Speed | Heading |
|---|---|---|---|---|---|
| 2026-04-30 05:37 | -33.93983 | 151.16689 | 29 ft | 0 kts | 304° |
| 2026-04-30 05:50 | -33.93993 | 151.16704 | 26 ft | 2 kts | 310° |
| 2026-04-30 05:50 | -33.94005 | 151.16717 | 32 ft | 2 kts | 319° |
| 2026-04-30 05:50 | -33.94018 | 151.16728 | 29 ft | 2 kts | 331° |
| 2026-04-30 05:50 | -33.94034 | 151.16734 | 31 ft | 2 kts | 346° |
| 2026-04-30 05:51 | -33.94050 | 151.16736 | 30 ft | 2 kts | 2° |
| 2026-04-30 05:51 | -33.94066 | 151.16731 | 30 ft | 2 kts | 17° |
| 2026-04-30 05:51 | -33.94080 | 151.16723 | 32 ft | 2 kts | 31° |
| 2026-04-30 05:51 | -33.94092 | 151.16709 | 32 ft | 2 kts | 57° |
| 2026-04-30 05:52 | -33.94097 | 151.16690 | 31 ft | 2 kts | 72° |
| 2026-04-30 05:52 | -33.94101 | 151.16677 | 32 ft | 0 kts | 73° |
| 2026-04-30 05:58 | -33.94100 | 151.16682 | 26 ft | 2 kts | 73° |
| 2026-04-30 05:58 | -33.94092 | 151.16710 | 26 ft | 0 kts | 73° |
| 2026-04-30 05:59 | -33.94091 | 151.16717 | 26 ft | 3 kts | 74° |
| 2026-04-30 05:59 | -33.94082 | 151.16752 | 26 ft | 6 kts | 74° |
| 2026-04-30 05:59 | -33.94069 | 151.16808 | 31 ft | 8 kts | 74° |
| 2026-04-30 06:00 | -33.94052 | 151.16882 | 30 ft | 10 kts | 74° |
| 2026-04-30 06:00 | -33.94032 | 151.16968 | 29 ft | 11 kts | 74° |
| 2026-04-30 06:00 | -33.94010 | 151.17063 | 31 ft | 12 kts | 74° |
| 2026-04-30 06:00 | -33.93989 | 151.17153 | 26 ft | 0 kts | 75° |
| 2026-04-30 06:01 | -33.93986 | 151.17168 | 27 ft | 4 kts | 77° |
| 2026-04-30 06:01 | -33.93985 | 151.17173 | 28 ft | 0 kts | 81° |
| 2026-04-30 06:01 | -33.93984 | 151.17179 | 28 ft | 2 kts | 82° |
| 2026-04-30 06:01 | -33.93984 | 151.17183 | 29 ft | 1 kts | 85° |
| 2026-04-30 06:02 | -33.93983 | 151.17186 | 29 ft | 0 kts | 91° |
| 2026-04-30 06:02 | -33.93984 | 151.17195 | 28 ft | 2 kts | 100° |
| 2026-04-30 06:02 | -33.93993 | 151.17220 | 27 ft | 3 kts | 134° |
| 2026-04-30 06:02 | -33.94016 | 151.17234 | 26 ft | 6 kts | 163° |
| 2026-04-30 06:03 | -33.94062 | 151.17248 | 26 ft | 8 kts | 168° |
| 2026-04-30 06:03 | -33.94128 | 151.17264 | 27 ft | 11 kts | 168° |
| 2026-04-30 06:03 | -33.94216 | 151.17287 | 27 ft | 14 kts | 168° |
| 2026-04-30 06:03 | -33.94318 | 151.17313 | 29 ft | 15 kts | 168° |
| 2026-04-30 06:04 | -33.94426 | 151.17341 | 31 ft | 17 kts | 168° |
| 2026-04-30 06:04 | -33.94546 | 151.17372 | 31 ft | 18 kts | 168° |
| 2026-04-30 06:04 | -33.94677 | 151.17406 | 31 ft | 20 kts | 168° |
| 2026-04-30 06:05 | -33.94992 | 151.17490 | 28 ft | 25 kts | 167° |
| 2026-04-30 06:05 | -33.95163 | 151.17535 | 26 ft | 26 kts | 167° |
| 2026-04-30 06:05 | -33.95341 | 151.17580 | 26 ft | 26 kts | 168° |
| 2026-04-30 06:05 | -33.95515 | 151.17625 | 29 ft | 25 kts | 167° |
| 2026-04-30 06:06 | -33.95683 | 151.17671 | 29 ft | 24 kts | 167° |
| 2026-04-30 06:06 | -33.95849 | 151.17712 | 28 ft | 25 kts | 168° |
| 2026-04-30 06:06 | -33.96023 | 151.17756 | 29 ft | 25 kts | 168° |
| 2026-04-30 06:06 | -33.96192 | 151.17799 | 28 ft | 26 kts | 168° |
| 2026-04-30 06:07 | -33.96294 | 151.17825 | 27 ft | 7 kts | 168° |
| 2026-04-30 06:07 | -33.96350 | 151.17839 | 28 ft | 10 kts | 168° |
| 2026-04-30 06:07 | -33.96415 | 151.17873 | 29 ft | 11 kts | 134° |
| 2026-04-30 06:07 | -33.96428 | 151.17893 | 29 ft | 0 kts | 109° |
| 2026-04-30 06:08 | -33.96497 | 151.18143 | 2025 ft | 255 kts | 107° |
| 2026-04-30 06:08 | -33.97014 | 151.19988 | 2069 ft | 224 kts | 105° |
| 2026-04-30 06:09 | -33.97480 | 151.21745 | 1899 ft | 213 kts | 101° |
| 2026-04-30 06:09 | -33.97362 | 151.23547 | 2026 ft | 232 kts | 63° |
| 2026-04-30 06:09 | -33.96218 | 151.24948 | 2475 ft | 246 kts | 26° |
| 2026-04-30 06:09 | -33.94527 | 151.25225 | 3156 ft | 253 kts | 351° |
| 2026-04-30 06:10 | -33.92956 | 151.24249 | 3767 ft | 264 kts | 319° |
| 2026-04-30 06:10 | -33.91773 | 151.22509 | 4451 ft | 270 kts | 307° |
| 2026-04-30 06:10 | -33.90914 | 151.20502 | 5272 ft | 273 kts | 289° |
| 2026-04-30 06:10 | -33.90478 | 151.18265 | 6018 ft | 276 kts | 283° |
| 2026-04-30 06:11 | -33.89960 | 151.16027 | 6822 ft | 278 kts | 291° |
| 2026-04-30 06:11 | -33.89023 | 151.14032 | 7514 ft | 280 kts | 309° |
| 2026-04-30 06:11 | -33.87736 | 151.12255 | 8220 ft | 284 kts | 315° |
| 2026-04-30 06:11 | -33.86337 | 151.10563 | 8934 ft | 288 kts | 317° |
| 2026-04-30 06:12 | -33.84898 | 151.08855 | 9678 ft | 290 kts | 316° |
| 2026-04-30 06:12 | -33.83464 | 151.07124 | 10384 ft | 295 kts | 316° |
| 2026-04-30 06:12 | -33.82002 | 151.05333 | 10771 ft | 310 kts | 316° |
| 2026-04-30 06:12 | -33.80449 | 151.03415 | 10939 ft | 329 kts | 316° |
| 2026-04-30 06:13 | -33.78729 | 151.01511 | 11137 ft | 343 kts | 328° |
| 2026-04-30 06:13 | -33.76541 | 151.00401 | 11769 ft | 341 kts | 350° |
| 2026-04-30 06:13 | -33.74188 | 151.00347 | 12433 ft | 340 kts | 11° |
| 2026-04-30 06:13 | -33.71975 | 151.01334 | 13019 ft | 344 kts | 32° |
| 2026-04-30 06:14 | -33.70215 | 151.03249 | 13711 ft | 346 kts | 52° |
| 2026-04-30 06:14 | -33.69106 | 151.05843 | 14173 ft | 356 kts | 72° |
| 2026-04-30 06:14 | -33.68839 | 151.08770 | 14729 ft | 361 kts | 92° |
| 2026-04-30 06:14 | -33.69002 | 151.11778 | 15303 ft | 362 kts | 92° |
| 2026-04-30 06:15 | -33.69236 | 151.14808 | 15849 ft | 365 kts | 100° |
| 2026-04-30 06:15 | -33.70074 | 151.17678 | 16422 ft | 368 kts | 118° |
| 2026-04-30 06:15 | -33.71606 | 151.20147 | 17014 ft | 370 kts | 131° |
| 2026-04-30 06:15 | -33.73368 | 151.22391 | 17572 ft | 372 kts | 134° |
| 2026-04-30 06:16 | -33.75215 | 151.24617 | 18098 ft | 375 kts | 134° |
| 2026-04-30 06:16 | -33.77062 | 151.26832 | 18660 ft | 376 kts | 134° |
| 2026-04-30 06:16 | -33.78905 | 151.29062 | 19074 ft | 379 kts | 134° |
| 2026-04-30 06:16 | -33.80754 | 151.31322 | 19605 ft | 379 kts | 134° |
| 2026-04-30 06:17 | -33.82567 | 151.33548 | 20097 ft | 379 kts | 134° |
| 2026-04-30 06:17 | -33.84426 | 151.35838 | 20384 ft | 386 kts | 134° |
| 2026-04-30 06:17 | -33.86313 | 151.38166 | 20817 ft | 388 kts | 134° |
| 2026-04-30 06:17 | -33.88202 | 151.40498 | 21247 ft | 390 kts | 134° |
| 2026-04-30 06:18 | -33.90094 | 151.42835 | 21703 ft | 391 kts | 134° |
| 2026-04-30 06:18 | -33.91998 | 151.45188 | 22127 ft | 393 kts | 134° |
| 2026-04-30 06:18 | -33.93904 | 151.47545 | 22506 ft | 396 kts | 134° |
| 2026-04-30 06:18 | -33.95839 | 151.49939 | 22906 ft | 399 kts | 134° |
| 2026-04-30 06:19 | -33.97785 | 151.52350 | 23266 ft | 403 kts | 134° |
| 2026-04-30 06:19 | -33.99720 | 151.54748 | 23750 ft | 403 kts | 134° |
| 2026-04-30 06:19 | -34.01681 | 151.57180 | 24099 ft | 406 kts | 134° |
| 2026-04-30 06:19 | -34.03648 | 151.59620 | 24440 ft | 408 kts | 134° |
| 2026-04-30 06:20 | -34.05631 | 151.62082 | 24766 ft | 410 kts | 134° |
| 2026-04-30 06:20 | -34.07628 | 151.64565 | 25089 ft | 413 kts | 135° |
| 2026-04-30 06:20 | -34.09614 | 151.67034 | 25575 ft | 411 kts | 134° |
| 2026-04-30 06:20 | -34.11618 | 151.69529 | 25945 ft | 413 kts | 135° |
| 2026-04-30 06:21 | -34.13625 | 151.72028 | 26210 ft | 418 kts | 135° |
| 2026-04-30 06:21 | -34.15629 | 151.74525 | 26581 ft | 420 kts | 134° |
| 2026-04-30 06:21 | -34.17672 | 151.77073 | 26950 ft | 423 kts | 135° |
| 2026-04-30 06:21 | -34.19713 | 151.79622 | 27385 ft | 424 kts | 135° |
| 2026-04-30 06:22 | -34.21766 | 151.82187 | 27841 ft | 425 kts | 135° |
| 2026-04-30 06:22 | -34.23837 | 151.84775 | 28156 ft | 430 kts | 135° |
| 2026-04-30 06:22 | -34.25926 | 151.87388 | 28498 ft | 434 kts | 135° |
| 2026-04-30 06:22 | -34.28022 | 151.90012 | 29017 ft | 434 kts | 135° |
| 2026-04-30 06:23 | -34.30128 | 151.92651 | 29410 ft | 437 kts | 135° |
| 2026-04-30 06:23 | -34.32133 | 151.95373 | 29848 ft | 440 kts | 129° |
| 2026-04-30 06:23 | -34.33905 | 151.98403 | 30310 ft | 443 kts | 123° |
| 2026-04-30 06:23 | -34.35468 | 152.01634 | 30656 ft | 446 kts | 121° |
| 2026-04-30 06:24 | -34.37036 | 152.04882 | 30998 ft | 449 kts | 121° |
| 2026-04-30 06:24 | -34.38620 | 152.08130 | 31395 ft | 450 kts | 121° |
| 2026-04-30 06:24 | -34.40222 | 152.11411 | 31770 ft | 452 kts | 121° |
| 2026-04-30 06:24 | -34.41825 | 152.14703 | 32166 ft | 454 kts | 121° |
| 2026-04-30 06:25 | -34.43428 | 152.18003 | 32549 ft | 455 kts | 121° |
| 2026-04-30 06:25 | -34.45035 | 152.21318 | 32910 ft | 458 kts | 121° |
| 2026-04-30 06:25 | -34.46628 | 152.24607 | 33257 ft | 460 kts | 121° |
| 2026-04-30 06:25 | -34.48246 | 152.27954 | 33618 ft | 462 kts | 121° |
| 2026-04-30 06:26 | -34.49872 | 152.31319 | 33992 ft | 464 kts | 121° |
| 2026-04-30 06:26 | -34.51506 | 152.34706 | 34358 ft | 466 kts | 121° |
| 2026-04-30 06:26 | -34.53146 | 152.38107 | 34635 ft | 469 kts | 121° |
| 2026-04-30 06:26 | -34.54802 | 152.41543 | 34848 ft | 473 kts | 121° |
| 2026-04-30 06:27 | -34.56464 | 152.44998 | 35099 ft | 476 kts | 121° |
| 2026-04-30 06:27 | -34.58137 | 152.48477 | 35383 ft | 478 kts | 121° |
| 2026-04-30 06:27 | -34.59794 | 152.51927 | 35676 ft | 481 kts | 122° |
| 2026-04-30 06:27 | -34.61478 | 152.55437 | 35967 ft | 483 kts | 122° |
| 2026-04-30 06:28 | -34.63171 | 152.58968 | 36250 ft | 485 kts | 122° |
| 2026-04-30 06:28 | -34.64867 | 152.62511 | 36563 ft | 487 kts | 122° |
| 2026-04-30 06:28 | -34.66571 | 152.66074 | 36843 ft | 488 kts | 122° |
| 2026-04-30 06:28 | -34.68283 | 152.69655 | 37129 ft | 490 kts | 122° |
| 2026-04-30 06:29 | -34.69997 | 152.73246 | 37422 ft | 492 kts | 122° |
| 2026-04-30 06:29 | -34.71691 | 152.76799 | 37704 ft | 493 kts | 122° |
| 2026-04-30 06:29 | -34.73411 | 152.80409 | 37982 ft | 495 kts | 122° |
| 2026-04-30 06:29 | -34.75137 | 152.84036 | 38262 ft | 497 kts | 122° |
| 2026-04-30 06:30 | -34.76874 | 152.87690 | 38520 ft | 499 kts | 122° |
| 2026-04-30 06:30 | -34.78610 | 152.91345 | 38842 ft | 500 kts | 122° |
| 2026-04-30 06:30 | -34.80347 | 152.95006 | 39107 ft | 501 kts | 122° |
| 2026-04-30 06:30 | -34.82090 | 152.98685 | 39331 ft | 502 kts | 122° |
| 2026-04-30 06:31 | -34.83836 | 153.02372 | 39447 ft | 506 kts | 122° |
| 2026-04-30 06:31 | -34.87365 | 153.09839 | 39440 ft | 505 kts | 122° |
| 2026-04-30 06:32 | -34.90838 | 153.17205 | 39442 ft | 507 kts | 122° |
| 2026-04-30 06:32 | -34.94346 | 153.24658 | 39441 ft | 507 kts | 122° |
| 2026-04-30 06:33 | -34.97847 | 153.32113 | 39442 ft | 507 kts | 122° |
| 2026-04-30 06:33 | -35.01349 | 153.39587 | 39449 ft | 507 kts | 122° |
| 2026-04-30 06:34 | -35.04823 | 153.47017 | 39453 ft | 507 kts | 122° |
| 2026-04-30 06:34 | -35.08312 | 153.54494 | 39451 ft | 507 kts | 122° |
| 2026-04-30 06:35 | -35.11797 | 153.61981 | 39453 ft | 507 kts | 122° |
| 2026-04-30 06:35 | -35.15279 | 153.69477 | 39453 ft | 507 kts | 122° |
| 2026-04-30 06:36 | -35.18758 | 153.76981 | 39450 ft | 507 kts | 122° |
| 2026-04-30 06:36 | -35.22210 | 153.84445 | 39451 ft | 507 kts | 122° |
| 2026-04-30 06:37 | -35.25673 | 153.91948 | 39466 ft | 507 kts | 122° |
| 2026-04-30 06:37 | -35.29138 | 153.99472 | 39463 ft | 507 kts | 122° |
| 2026-04-30 06:38 | -35.32566 | 154.06932 | 39461 ft | 506 kts | 122° |
| 2026-04-30 06:38 | -35.36039 | 154.14508 | 39461 ft | 506 kts | 122° |
| 2026-04-30 06:39 | -35.39453 | 154.21970 | 39456 ft | 506 kts | 122° |
| 2026-04-30 06:39 | -35.42887 | 154.29493 | 39460 ft | 505 kts | 122° |
| 2026-04-30 06:40 | -35.46310 | 154.37009 | 39465 ft | 505 kts | 122° |
| 2026-04-30 06:40 | -35.49737 | 154.44551 | 39461 ft | 506 kts | 121° |
| 2026-04-30 06:41 | -35.53154 | 154.52085 | 39459 ft | 506 kts | 121° |
| 2026-04-30 06:41 | -35.56549 | 154.59588 | 39459 ft | 506 kts | 121° |
| 2026-04-30 06:42 | -35.59963 | 154.67143 | 39472 ft | 506 kts | 122° |
| 2026-04-30 06:42 | -35.63850 | 154.74302 | 39466 ft | 503 kts | 128° |
| 2026-04-30 06:43 | -35.67877 | 154.81267 | 39465 ft | 503 kts | 128° |
| 2026-04-30 06:43 | -35.71925 | 154.88298 | 39474 ft | 503 kts | 128° |
| 2026-04-30 06:44 | -35.75961 | 154.95327 | 39475 ft | 504 kts | 128° |
| 2026-04-30 06:44 | -35.79999 | 155.02377 | 39481 ft | 504 kts | 128° |
| 2026-04-30 06:45 | -35.84032 | 155.09432 | 39479 ft | 503 kts | 128° |
| 2026-04-30 06:45 | -35.88033 | 155.16447 | 39477 ft | 503 kts | 128° |
| 2026-04-30 06:46 | -35.92057 | 155.23517 | 39478 ft | 503 kts | 128° |
| 2026-04-30 06:46 | -35.96069 | 155.30578 | 39475 ft | 503 kts | 128° |
| 2026-04-30 06:47 | -36.00077 | 155.37646 | 39484 ft | 503 kts | 128° |
| 2026-04-30 06:47 | -36.04094 | 155.44744 | 39498 ft | 504 kts | 127° |
| 2026-04-30 06:48 | -36.08080 | 155.51804 | 39507 ft | 504 kts | 127° |
| 2026-04-30 06:48 | -36.12087 | 155.58917 | 39501 ft | 504 kts | 127° |
| 2026-04-30 06:49 | -36.16085 | 155.66028 | 39498 ft | 503 kts | 127° |
| 2026-04-30 06:49 | -36.20073 | 155.73135 | 39494 ft | 502 kts | 127° |
| 2026-04-30 06:50 | -36.24026 | 155.80195 | 39489 ft | 502 kts | 127° |
| 2026-04-30 06:50 | -36.27995 | 155.87299 | 39488 ft | 501 kts | 127° |
| 2026-04-30 06:51 | -36.31955 | 155.94400 | 39497 ft | 500 kts | 127° |
| 2026-04-30 06:51 | -36.35906 | 156.01501 | 39489 ft | 500 kts | 127° |
| 2026-04-30 06:52 | -36.39823 | 156.08556 | 39485 ft | 499 kts | 127° |
| 2026-04-30 06:52 | -36.43756 | 156.15653 | 39496 ft | 498 kts | 127° |
| 2026-04-30 06:53 | -36.47679 | 156.22746 | 39491 ft | 498 kts | 127° |
| 2026-04-30 06:53 | -36.51590 | 156.29834 | 39496 ft | 497 kts | 127° |
| 2026-04-30 06:54 | -36.55471 | 156.36880 | 39490 ft | 496 kts | 127° |
| 2026-04-30 06:54 | -36.59366 | 156.43968 | 39492 ft | 496 kts | 127° |
| 2026-04-30 06:55 | -36.63254 | 156.51058 | 39486 ft | 496 kts | 127° |
| 2026-04-30 06:55 | -36.67136 | 156.58150 | 39492 ft | 495 kts | 127° |
| 2026-04-30 06:56 | -36.71013 | 156.65251 | 39485 ft | 496 kts | 127° |
| 2026-04-30 06:56 | -36.74864 | 156.72316 | 39485 ft | 496 kts | 127° |
| 2026-04-30 06:57 | -36.78735 | 156.79434 | 39504 ft | 496 kts | 127° |
| 2026-04-30 06:57 | -36.82600 | 156.86556 | 39506 ft | 496 kts | 127° |
| 2026-04-30 06:58 | -36.86461 | 156.93685 | 39508 ft | 496 kts | 127° |
| 2026-04-30 06:58 | -36.90316 | 157.00819 | 39505 ft | 495 kts | 127° |
| 2026-04-30 06:59 | -36.94132 | 157.07896 | 39506 ft | 495 kts | 127° |
| 2026-04-30 06:59 | -36.97975 | 157.15036 | 39502 ft | 495 kts | 127° |
| 2026-04-30 07:00 | -37.01810 | 157.22179 | 39510 ft | 494 kts | 127° |
| 2026-04-30 07:00 | -37.05646 | 157.29338 | 39503 ft | 495 kts | 127° |
| 2026-04-30 07:01 | -37.09450 | 157.36450 | 39504 ft | 495 kts | 126° |
| 2026-04-30 07:01 | -37.13284 | 157.43637 | 39504 ft | 495 kts | 126° |
| 2026-04-30 07:02 | -37.17096 | 157.50795 | 39516 ft | 495 kts | 126° |
| 2026-04-30 07:02 | -37.20913 | 157.57980 | 39507 ft | 495 kts | 126° |
| 2026-04-30 07:03 | -37.24702 | 157.65126 | 39498 ft | 495 kts | 126° |
| 2026-04-30 07:03 | -37.28508 | 157.72321 | 39503 ft | 495 kts | 126° |
| 2026-04-30 07:04 | -37.32309 | 157.79522 | 39498 ft | 495 kts | 126° |
| 2026-04-30 07:04 | -37.36104 | 157.86727 | 39504 ft | 494 kts | 126° |
| 2026-04-30 07:05 | -37.41795 | 157.97559 | 39509 ft | 494 kts | 126° |
| 2026-04-30 07:05 | -37.45548 | 158.04724 | 39507 ft | 494 kts | 126° |
| 2026-04-30 07:06 | -37.49333 | 158.11956 | 39518 ft | 495 kts | 126° |
| 2026-04-30 07:06 | -37.53113 | 158.19192 | 39523 ft | 494 kts | 126° |
| 2026-04-30 07:07 | -37.56874 | 158.26448 | 39519 ft | 494 kts | 126° |
| 2026-04-30 07:07 | -37.60611 | 158.33661 | 39522 ft | 494 kts | 126° |
| 2026-04-30 07:08 | -37.64373 | 158.40916 | 39517 ft | 494 kts | 126° |
| 2026-04-30 07:08 | -37.68131 | 158.48175 | 39516 ft | 494 kts | 126° |
| 2026-04-30 07:09 | -37.71880 | 158.55442 | 39518 ft | 494 kts | 125° |
| 2026-04-30 07:09 | -37.75623 | 158.62714 | 39525 ft | 494 kts | 125° |
| 2026-04-30 07:10 | -37.79338 | 158.69949 | 39518 ft | 494 kts | 125° |
| 2026-04-30 07:10 | -37.83074 | 158.77241 | 39525 ft | 494 kts | 125° |
| 2026-04-30 07:11 | -37.86804 | 158.84539 | 39528 ft | 494 kts | 125° |
| 2026-04-30 07:11 | -37.90530 | 158.91843 | 39526 ft | 494 kts | 125° |
| 2026-04-30 07:12 | -37.94251 | 158.99153 | 39528 ft | 494 kts | 125° |
| 2026-04-30 07:12 | -37.97942 | 159.06423 | 39527 ft | 493 kts | 125° |
| 2026-04-30 07:13 | -38.01652 | 159.13745 | 39527 ft | 493 kts | 125° |
| 2026-04-30 07:13 | -38.05355 | 159.21069 | 39529 ft | 493 kts | 124° |
| 2026-04-30 07:14 | -38.09053 | 159.28401 | 39529 ft | 493 kts | 124° |
| 2026-04-30 07:14 | -38.12745 | 159.35737 | 39527 ft | 493 kts | 124° |
| 2026-04-30 07:15 | -38.16405 | 159.43026 | 39528 ft | 493 kts | 124° |
| 2026-04-30 07:15 | -38.20087 | 159.50375 | 39537 ft | 493 kts | 124° |
| 2026-04-30 07:16 | -38.23767 | 159.57736 | 39541 ft | 493 kts | 124° |
| 2026-04-30 07:16 | -38.27419 | 159.65058 | 39543 ft | 493 kts | 124° |
| 2026-04-30 07:17 | -38.31089 | 159.72432 | 39539 ft | 493 kts | 124° |
| 2026-04-30 07:18 | -38.36578 | 159.83494 | 39538 ft | 493 kts | 124° |
| 2026-04-30 07:18 | -38.40232 | 159.90877 | 39540 ft | 492 kts | 124° |
| 2026-04-30 07:19 | -38.43857 | 159.98220 | 39539 ft | 492 kts | 124° |
| 2026-04-30 07:19 | -38.47499 | 160.05613 | 39544 ft | 492 kts | 124° |
| 2026-04-30 07:20 | -38.51135 | 160.13014 | 39537 ft | 492 kts | 124° |
| 2026-04-30 07:20 | -38.54766 | 160.20419 | 39557 ft | 492 kts | 124° |
| 2026-04-30 07:21 | -38.58371 | 160.27787 | 39551 ft | 492 kts | 124° |
| 2026-04-30 07:21 | -38.61995 | 160.35211 | 39551 ft | 492 kts | 124° |
| 2026-04-30 07:22 | -38.67413 | 160.46345 | 39546 ft | 492 kts | 124° |
| 2026-04-30 07:22 | -38.70415 | 160.52530 | 39551 ft | 492 kts | 123° |
| 2026-04-30 07:23 | -38.74022 | 160.59977 | 39546 ft | 492 kts | 123° |
| 2026-04-30 07:23 | -38.78209 | 160.68643 | 39550 ft | 492 kts | 123° |
| 2026-04-30 07:24 | -38.81202 | 160.74851 | 39549 ft | 492 kts | 123° |
| 2026-04-30 07:24 | -38.84797 | 160.82326 | 39548 ft | 492 kts | 123° |
| 2026-04-30 07:25 | -38.88992 | 160.91071 | 39546 ft | 493 kts | 123° |
| 2026-04-30 07:25 | -38.91977 | 160.97307 | 39562 ft | 493 kts | 123° |
| 2026-04-30 07:26 | -38.95560 | 161.04809 | 39567 ft | 493 kts | 123° |
| 2026-04-30 07:26 | -38.99119 | 161.12278 | 39563 ft | 493 kts | 123° |
| 2026-04-30 07:27 | -39.02695 | 161.19799 | 39566 ft | 493 kts | 123° |
| 2026-04-30 07:27 | -39.06265 | 161.27327 | 39570 ft | 493 kts | 123° |
| 2026-04-30 07:28 | -39.09831 | 161.34864 | 39577 ft | 493 kts | 123° |
| 2026-04-30 07:28 | -39.13370 | 161.42361 | 39569 ft | 493 kts | 123° |
| 2026-04-30 07:29 | -39.16926 | 161.49914 | 39579 ft | 493 kts | 123° |
| 2026-04-30 07:29 | -39.20478 | 161.57474 | 39587 ft | 493 kts | 123° |
| 2026-04-30 07:30 | -39.25795 | 161.68827 | 39567 ft | 493 kts | 123° |
| 2026-04-30 07:31 | -39.29317 | 161.76369 | 39584 ft | 494 kts | 123° |
| 2026-04-30 07:31 | -39.32856 | 161.83966 | 39588 ft | 494 kts | 123° |
| 2026-04-30 07:32 | -39.36391 | 161.91572 | 39584 ft | 494 kts | 123° |
| 2026-04-30 07:32 | -39.39920 | 161.99184 | 39586 ft | 494 kts | 123° |
| 2026-04-30 07:33 | -39.43422 | 162.06755 | 39587 ft | 493 kts | 122° |
| 2026-04-30 07:33 | -39.46940 | 162.14381 | 39573 ft | 493 kts | 122° |
| 2026-04-30 07:34 | -39.50452 | 162.22012 | 39574 ft | 493 kts | 122° |
| 2026-04-30 07:34 | -39.53960 | 162.29651 | 39584 ft | 493 kts | 122° |
| 2026-04-30 07:35 | -39.57464 | 162.37303 | 39579 ft | 494 kts | 122° |
| 2026-04-30 07:35 | -39.60967 | 162.44969 | 39587 ft | 494 kts | 122° |
| 2026-04-30 07:36 | -39.64436 | 162.52579 | 39586 ft | 494 kts | 122° |
| 2026-04-30 07:36 | -39.67930 | 162.60263 | 39593 ft | 494 kts | 122° |
| 2026-04-30 07:37 | -39.71420 | 162.67959 | 39595 ft | 495 kts | 122° |
| 2026-04-30 07:37 | -39.74912 | 162.75676 | 39595 ft | 495 kts | 122° |
| 2026-04-30 07:38 | -39.78393 | 162.83386 | 39591 ft | 494 kts | 122° |
| 2026-04-30 07:38 | -39.81841 | 162.91034 | 39596 ft | 494 kts | 122° |
| 2026-04-30 07:39 | -39.85316 | 162.98755 | 39593 ft | 495 kts | 122° |
| 2026-04-30 07:39 | -39.88709 | 163.06543 | 39589 ft | 495 kts | 122° |
| 2026-04-30 07:40 | -39.92175 | 163.14222 | 39597 ft | 495 kts | 122° |
| 2026-04-30 07:40 | -39.95654 | 163.21970 | 39601 ft | 495 kts | 122° |
| 2026-04-30 07:41 | -39.99116 | 163.29738 | 39602 ft | 496 kts | 122° |
| 2026-04-30 07:41 | -40.02572 | 163.37524 | 39606 ft | 496 kts | 122° |
| 2026-04-30 07:42 | -40.06023 | 163.45324 | 39605 ft | 496 kts | 122° |
| 2026-04-30 07:42 | -40.09446 | 163.53085 | 39612 ft | 496 kts | 122° |
| 2026-04-30 07:43 | -40.12880 | 163.60893 | 39608 ft | 496 kts | 122° |
| 2026-04-30 07:43 | -40.16319 | 163.68729 | 39606 ft | 496 kts | 122° |
| 2026-04-30 07:44 | -40.19749 | 163.76566 | 39617 ft | 497 kts | 122° |
| 2026-04-30 07:44 | -40.23153 | 163.84362 | 39142 ft | 497 kts | 122° |
| 2026-04-30 07:44 | -40.24819 | 163.88181 | 39485 ft | 500 kts | 121° |
| 2026-04-30 07:45 | -40.26540 | 163.92138 | 39614 ft | 501 kts | 121° |
| 2026-04-30 07:45 | -40.29967 | 164.00033 | 39613 ft | 496 kts | 121° |
| 2026-04-30 07:46 | -40.33379 | 164.07908 | 39612 ft | 498 kts | 122° |
| 2026-04-30 07:46 | -40.36795 | 164.15812 | 39611 ft | 498 kts | 121° |
| 2026-04-30 07:47 | -40.40178 | 164.23661 | 39620 ft | 498 kts | 121° |
| 2026-04-30 07:47 | -40.43581 | 164.31576 | 39620 ft | 498 kts | 121° |
| 2026-04-30 07:48 | -40.46970 | 164.39480 | 39619 ft | 498 kts | 121° |
| 2026-04-30 07:48 | -40.50365 | 164.47419 | 39621 ft | 498 kts | 121° |
| 2026-04-30 07:49 | -40.53751 | 164.55357 | 39623 ft | 498 kts | 121° |
| 2026-04-30 07:49 | -40.57114 | 164.63263 | 39620 ft | 498 kts | 121° |
| 2026-04-30 07:50 | -40.60493 | 164.71224 | 39627 ft | 499 kts | 121° |
| 2026-04-30 07:50 | -40.63868 | 164.79200 | 39628 ft | 499 kts | 121° |
| 2026-04-30 07:51 | -40.67237 | 164.87182 | 39631 ft | 499 kts | 121° |
| 2026-04-30 07:51 | -40.70583 | 164.95129 | 39631 ft | 499 kts | 121° |
| 2026-04-30 07:52 | -40.73946 | 165.03141 | 39631 ft | 499 kts | 121° |
| 2026-04-30 07:52 | -40.77299 | 165.11148 | 39627 ft | 499 kts | 121° |
| 2026-04-30 07:53 | -40.80653 | 165.19177 | 39626 ft | 499 kts | 121° |
| 2026-04-30 07:53 | -40.83999 | 165.27211 | 39624 ft | 500 kts | 121° |
| 2026-04-30 07:54 | -40.87325 | 165.35217 | 39628 ft | 500 kts | 121° |
| 2026-04-30 07:54 | -40.90665 | 165.43279 | 39630 ft | 500 kts | 121° |
| 2026-04-30 07:55 | -40.93994 | 165.51336 | 39632 ft | 500 kts | 121° |
| 2026-04-30 07:55 | -40.97329 | 165.59427 | 39630 ft | 500 kts | 121° |
| 2026-04-30 07:56 | -41.00629 | 165.67459 | 39630 ft | 500 kts | 121° |
| 2026-04-30 07:56 | -41.03951 | 165.75564 | 39630 ft | 500 kts | 121° |
| 2026-04-30 07:57 | -41.07263 | 165.83668 | 39630 ft | 500 kts | 121° |
| 2026-04-30 07:57 | -41.10573 | 165.91786 | 39634 ft | 500 kts | 121° |
| 2026-04-30 07:58 | -41.13873 | 165.99905 | 39628 ft | 501 kts | 121° |
| 2026-04-30 07:58 | -41.17149 | 166.07985 | 39629 ft | 501 kts | 121° |
| 2026-04-30 07:59 | -41.20449 | 166.16147 | 39633 ft | 501 kts | 121° |
| 2026-04-30 07:59 | -41.23736 | 166.24300 | 39630 ft | 501 kts | 121° |
| 2026-04-30 08:00 | -41.28643 | 166.36512 | 39631 ft | 502 kts | 120° |
| 2026-04-30 08:00 | -41.31925 | 166.44709 | 39632 ft | 502 kts | 120° |
| 2026-04-30 08:01 | -41.35199 | 166.52908 | 39632 ft | 502 kts | 120° |
| 2026-04-30 08:01 | -41.38468 | 166.61117 | 39631 ft | 502 kts | 120° |
| 2026-04-30 08:02 | -41.43342 | 166.73401 | 39633 ft | 502 kts | 120° |
| 2026-04-30 08:03 | -41.49849 | 166.89880 | 39631 ft | 502 kts | 120° |
| 2026-04-30 08:04 | -41.53074 | 166.98080 | 39630 ft | 502 kts | 120° |
| 2026-04-30 08:04 | -41.56334 | 167.06395 | 39632 ft | 502 kts | 120° |
| 2026-04-30 08:05 | -41.59544 | 167.14605 | 39628 ft | 502 kts | 120° |
| 2026-04-30 08:05 | -41.62769 | 167.22876 | 39624 ft | 502 kts | 120° |
| 2026-04-30 08:06 | -41.65983 | 167.31146 | 39622 ft | 502 kts | 120° |
| 2026-04-30 08:06 | -41.69198 | 167.39438 | 39618 ft | 502 kts | 120° |
| 2026-04-30 08:07 | -41.72405 | 167.47733 | 39625 ft | 502 kts | 120° |
| 2026-04-30 08:07 | -41.75590 | 167.55994 | 39614 ft | 502 kts | 120° |
| 2026-04-30 08:08 | -41.78782 | 167.64300 | 39617 ft | 502 kts | 120° |
| 2026-04-30 08:08 | -41.81966 | 167.72606 | 39615 ft | 502 kts | 120° |
| 2026-04-30 08:09 | -41.85155 | 167.80951 | 39614 ft | 502 kts | 120° |
| 2026-04-30 08:09 | -41.88327 | 167.89277 | 39614 ft | 502 kts | 120° |
| 2026-04-30 08:10 | -41.91480 | 167.97575 | 39618 ft | 502 kts | 120° |
| 2026-04-30 08:10 | -41.94642 | 168.05920 | 39614 ft | 501 kts | 119° |
| 2026-04-30 08:11 | -41.97797 | 168.14271 | 39615 ft | 501 kts | 119° |
| 2026-04-30 08:11 | -42.00925 | 168.22576 | 39618 ft | 501 kts | 119° |
| 2026-04-30 08:12 | -42.04063 | 168.30932 | 39611 ft | 501 kts | 119° |
| 2026-04-30 08:12 | -42.07190 | 168.39280 | 39617 ft | 501 kts | 119° |
| 2026-04-30 08:13 | -42.10327 | 168.47683 | 39618 ft | 501 kts | 119° |
| 2026-04-30 08:13 | -42.13430 | 168.56018 | 39616 ft | 501 kts | 119° |
| 2026-04-30 08:14 | -42.16544 | 168.64406 | 39615 ft | 500 kts | 119° |
| 2026-04-30 08:14 | -42.19652 | 168.72803 | 39622 ft | 500 kts | 119° |
| 2026-04-30 08:15 | -42.22747 | 168.81191 | 39619 ft | 500 kts | 119° |
| 2026-04-30 08:15 | -42.25820 | 168.89542 | 39617 ft | 500 kts | 119° |
| 2026-04-30 08:16 | -42.28901 | 168.97942 | 39618 ft | 499 kts | 118° |
| 2026-04-30 08:16 | -42.31981 | 169.06362 | 39617 ft | 499 kts | 118° |
| 2026-04-30 08:17 | -42.35053 | 169.14772 | 39619 ft | 499 kts | 118° |
| 2026-04-30 08:17 | -42.38122 | 169.23194 | 39619 ft | 499 kts | 118° |
| 2026-04-30 08:18 | -42.41153 | 169.31564 | 39626 ft | 499 kts | 117° |
| 2026-04-30 08:18 | -42.43778 | 169.40273 | 39621 ft | 501 kts | 111° |
| 2026-04-30 08:19 | -42.46184 | 169.49126 | 39630 ft | 500 kts | 113° |
| 2026-04-30 08:19 | -42.48624 | 169.57958 | 39615 ft | 500 kts | 112° |
| 2026-04-30 08:20 | -42.51022 | 169.66737 | 39618 ft | 500 kts | 112° |
| 2026-04-30 08:20 | -42.53423 | 169.75583 | 39617 ft | 501 kts | 112° |
| 2026-04-30 08:21 | -42.55819 | 169.84447 | 39622 ft | 500 kts | 112° |
| 2026-04-30 08:21 | -42.58204 | 169.93299 | 39631 ft | 500 kts | 112° |
| 2026-04-30 08:22 | -42.60588 | 170.02180 | 39626 ft | 500 kts | 112° |
| 2026-04-30 08:22 | -42.62942 | 170.10980 | 39627 ft | 500 kts | 112° |
| 2026-04-30 08:23 | -42.65310 | 170.19866 | 39641 ft | 499 kts | 112° |
| 2026-04-30 08:23 | -42.66482 | 170.24278 | 39439 ft | 494 kts | 112° |
| 2026-04-30 08:23 | -42.67635 | 170.28631 | 38884 ft | 488 kts | 112° |
| 2026-04-30 08:23 | -42.68785 | 170.32975 | 37836 ft | 489 kts | 112° |
| 2026-04-30 08:24 | -42.69934 | 170.37318 | 36974 ft | 486 kts | 112° |
| 2026-04-30 08:24 | -42.71062 | 170.41597 | 36367 ft | 478 kts | 112° |
| 2026-04-30 08:24 | -42.72166 | 170.45790 | 35459 ft | 477 kts | 112° |
| 2026-04-30 08:24 | -42.73286 | 170.50044 | 34401 ft | 479 kts | 112° |
| 2026-04-30 08:25 | -42.74399 | 170.54282 | 33735 ft | 473 kts | 112° |
| 2026-04-30 08:25 | -42.75494 | 170.58462 | 33390 ft | 463 kts | 111° |
| 2026-04-30 08:25 | -42.76562 | 170.62551 | 32959 ft | 457 kts | 111° |
| 2026-04-30 08:25 | -42.77625 | 170.66616 | 32383 ft | 453 kts | 111° |
| 2026-04-30 08:26 | -42.78673 | 170.70635 | 31823 ft | 449 kts | 111° |
| 2026-04-30 08:26 | -42.79711 | 170.74621 | 31235 ft | 445 kts | 111° |
| 2026-04-30 08:26 | -42.80741 | 170.78584 | 30680 ft | 441 kts | 110° |
| 2026-04-30 08:26 | -42.81754 | 170.82494 | 30077 ft | 437 kts | 110° |
| 2026-04-30 08:27 | -42.82747 | 170.86331 | 29517 ft | 431 kts | 110° |
| 2026-04-30 08:27 | -42.83739 | 170.90170 | 28956 ft | 426 kts | 110° |
| 2026-04-30 08:27 | -42.84714 | 170.93951 | 28410 ft | 421 kts | 110° |
| 2026-04-30 08:27 | -42.85681 | 170.97699 | 27848 ft | 417 kts | 110° |
| 2026-04-30 08:28 | -42.86637 | 171.01418 | 27298 ft | 413 kts | 110° |
| 2026-04-30 08:28 | -42.87566 | 171.05032 | 26760 ft | 409 kts | 110° |
| 2026-04-30 08:28 | -42.88502 | 171.08682 | 26205 ft | 406 kts | 110° |
| 2026-04-30 08:28 | -42.89444 | 171.12359 | 25663 ft | 403 kts | 110° |
| 2026-04-30 08:29 | -42.90365 | 171.15960 | 25111 ft | 401 kts | 110° |
| 2026-04-30 08:29 | -42.91269 | 171.19497 | 24575 ft | 399 kts | 110° |
| 2026-04-30 08:29 | -42.92175 | 171.23051 | 23986 ft | 397 kts | 110° |
| 2026-04-30 08:29 | -42.93077 | 171.26593 | 23421 ft | 393 kts | 110° |
| 2026-04-30 08:30 | -42.93967 | 171.30097 | 22883 ft | 389 kts | 110° |
| 2026-04-30 08:30 | -42.94847 | 171.33564 | 22328 ft | 385 kts | 109° |
| 2026-04-30 08:30 | -42.95717 | 171.36996 | 21792 ft | 381 kts | 109° |
| 2026-04-30 08:30 | -42.96578 | 171.40395 | 21252 ft | 378 kts | 109° |
| 2026-04-30 08:31 | -42.97423 | 171.43734 | 20728 ft | 375 kts | 109° |
| 2026-04-30 08:31 | -42.98268 | 171.47076 | 20186 ft | 372 kts | 109° |
| 2026-04-30 08:31 | -42.99166 | 171.50381 | 19648 ft | 369 kts | 114° |
| 2026-04-30 08:31 | -43.00383 | 171.53454 | 19113 ft | 368 kts | 122° |
| 2026-04-30 08:32 | -43.01758 | 171.56302 | 18552 ft | 365 kts | 122° |
| 2026-04-30 08:32 | -43.03158 | 171.59255 | 18004 ft | 361 kts | 122° |
| 2026-04-30 08:32 | -43.04502 | 171.62120 | 17475 ft | 357 kts | 122° |
| 2026-04-30 08:32 | -43.05842 | 171.64985 | 16947 ft | 354 kts | 122° |
| 2026-04-30 08:33 | -43.07143 | 171.67769 | 16436 ft | 351 kts | 122° |
| 2026-04-30 08:33 | -43.08454 | 171.70573 | 15911 ft | 348 kts | 122° |
| 2026-04-30 08:33 | -43.09753 | 171.73351 | 15411 ft | 345 kts | 122° |
| 2026-04-30 08:33 | -43.11041 | 171.76110 | 14877 ft | 343 kts | 122° |
| 2026-04-30 08:34 | -43.12334 | 171.78866 | 13921 ft | 347 kts | 124° |
| 2026-04-30 08:34 | -43.13879 | 171.81487 | 12868 ft | 352 kts | 134° |
| 2026-04-30 08:34 | -43.15643 | 171.83693 | 12669 ft | 334 kts | 139° |
| 2026-04-30 08:34 | -43.17342 | 171.85750 | 12467 ft | 318 kts | 138° |
| 2026-04-30 08:35 | -43.18941 | 171.87739 | 12309 ft | 301 kts | 137° |
| 2026-04-30 08:35 | -43.20473 | 171.89652 | 11755 ft | 300 kts | 137° |
| 2026-04-30 08:35 | -43.21999 | 171.91552 | 11207 ft | 299 kts | 138° |
| 2026-04-30 08:35 | -43.23534 | 171.93458 | 10675 ft | 297 kts | 138° |
| 2026-04-30 08:36 | -43.25060 | 171.95348 | 10290 ft | 288 kts | 138° |
| 2026-04-30 08:36 | -43.26011 | 171.96526 | 10292 ft | 280 kts | 138° |
| 2026-04-30 08:36 | -43.26729 | 171.97416 | 10232 ft | 278 kts | 138° |
| 2026-04-30 08:36 | -43.28139 | 171.99163 | 10076 ft | 267 kts | 138° |
| 2026-04-30 08:37 | -43.29507 | 172.00859 | 10013 ft | 270 kts | 138° |
| 2026-04-30 08:37 | -43.30948 | 172.02644 | 9975 ft | 286 kts | 138° |
| 2026-04-30 08:37 | -43.32416 | 172.04464 | 9928 ft | 288 kts | 138° |
| 2026-04-30 08:37 | -43.33908 | 172.06312 | 9537 ft | 290 kts | 138° |
| 2026-04-30 08:38 | -43.35402 | 172.08163 | 9104 ft | 287 kts | 138° |
| 2026-04-30 08:38 | -43.36886 | 172.10005 | 8460 ft | 287 kts | 138° |
| 2026-04-30 08:38 | -43.38358 | 172.11834 | 7877 ft | 284 kts | 138° |
| 2026-04-30 08:38 | -43.39821 | 172.13652 | 7293 ft | 282 kts | 138° |
| 2026-04-30 08:39 | -43.41273 | 172.15457 | 6747 ft | 280 kts | 138° |
| 2026-04-30 08:39 | -43.42743 | 172.17190 | 6326 ft | 278 kts | 144° |
| 2026-04-30 08:39 | -43.44390 | 172.18547 | 5899 ft | 276 kts | 152° |
| 2026-04-30 08:39 | -43.46052 | 172.19790 | 5582 ft | 270 kts | 151° |
| 2026-04-30 08:40 | -43.47641 | 172.21006 | 5441 ft | 254 kts | 151° |
| 2026-04-30 08:40 | -43.49138 | 172.22162 | 5299 ft | 240 kts | 151° |
| 2026-04-30 08:40 | -43.50558 | 172.23258 | 5169 ft | 226 kts | 151° |
| 2026-04-30 08:40 | -43.51886 | 172.24285 | 5108 ft | 213 kts | 151° |
| 2026-04-30 08:41 | -43.53171 | 172.25277 | 4700 ft | 207 kts | 152° |
| 2026-04-30 08:41 | -43.54439 | 172.26258 | 4226 ft | 210 kts | 152° |
| 2026-04-30 08:41 | -43.55727 | 172.27250 | 4080 ft | 214 kts | 152° |
| 2026-04-30 08:41 | -43.56973 | 172.28212 | 3992 ft | 200 kts | 152° |
| 2026-04-30 08:42 | -43.58144 | 172.29117 | 3679 ft | 191 kts | 151° |
| 2026-04-30 08:42 | -43.59308 | 172.30014 | 3557 ft | 195 kts | 150° |
| 2026-04-30 08:42 | -43.60485 | 172.30922 | 3379 ft | 194 kts | 150° |
| 2026-04-30 08:42 | -43.61662 | 172.31833 | 3200 ft | 193 kts | 150° |
| 2026-04-30 08:43 | -43.62762 | 172.32884 | 2991 ft | 192 kts | 129° |
| 2026-04-30 08:43 | -43.63253 | 172.34521 | 2820 ft | 184 kts | 90° |
| 2026-04-30 08:43 | -43.62983 | 172.36175 | 2574 ft | 176 kts | 60° |
| 2026-04-30 08:43 | -43.62307 | 172.37464 | 2439 ft | 159 kts | 45° |
| 2026-04-30 08:44 | -43.61567 | 172.38457 | 2293 ft | 138 kts | 40° |
| 2026-04-30 08:44 | -43.60869 | 172.39297 | 2044 ft | 134 kts | 38° |
| 2026-04-30 08:44 | -43.60148 | 172.40138 | 1997 ft | 136 kts | 39° |
| 2026-04-30 08:44 | -43.59420 | 172.40988 | 2001 ft | 139 kts | 38° |
| 2026-04-30 08:45 | -43.58671 | 172.41855 | 1998 ft | 142 kts | 39° |
| 2026-04-30 08:45 | -43.57928 | 172.42726 | 1998 ft | 139 kts | 39° |
| 2026-04-30 08:45 | -43.57191 | 172.43581 | 2007 ft | 139 kts | 40° |
| 2026-04-30 08:45 | -43.56523 | 172.44357 | 1978 ft | 138 kts | 40° |
| 2026-04-30 08:46 | -43.55799 | 172.45196 | 1779 ft | 132 kts | 40° |
| 2026-04-30 08:46 | -43.55113 | 172.45996 | 1613 ft | 126 kts | 40° |
| 2026-04-30 08:46 | -43.54447 | 172.46766 | 1446 ft | 125 kts | 40° |
| 2026-04-30 08:46 | -43.53790 | 172.47531 | 1286 ft | 124 kts | 40° |
| 2026-04-30 08:47 | -43.53133 | 172.48292 | 1105 ft | 124 kts | 41° |
| 2026-04-30 08:47 | -43.52461 | 172.49074 | 988 ft | 124 kts | 40° |
| 2026-04-30 08:47 | -43.51800 | 172.49835 | 800 ft | 128 kts | 42° |
| 2026-04-30 08:47 | -43.51131 | 172.50616 | 599 ft | 124 kts | 40° |
| 2026-04-30 08:48 | -43.50477 | 172.51371 | 408 ft | 122 kts | 41° |
| 2026-04-30 08:48 | -43.49816 | 172.52139 | 208 ft | 125 kts | 41° |
| 2026-04-30 08:48 | -43.49170 | 172.52893 | 120 ft | 109 kts | 40° |
| 2026-04-30 08:48 | -43.48734 | 172.53405 | 115 ft | 50 kts | 40° |
| 2026-04-30 08:49 | -43.48603 | 172.53558 | 113 ft | 18 kts | 40° |
| 2026-04-30 08:49 | -43.48515 | 172.53681 | 111 ft | 16 kts | 58° |
| 2026-04-30 08:49 | -43.48482 | 172.53789 | 113 ft | 1 kts | 72° |
| 2026-04-30 08:49 | -43.48473 | 172.53828 | 112 ft | 8 kts | 73° |
| 2026-04-30 08:50 | -43.48462 | 172.53914 | 108 ft | 7 kts | 93° |
| 2026-04-30 08:50 | -43.48473 | 172.53969 | 110 ft | 7 kts | 113° |
| 2026-04-30 08:50 | -43.48497 | 172.54040 | 111 ft | 10 kts | 115° |
| 2026-04-30 08:50 | -43.48525 | 172.54108 | 109 ft | 0 kts | 126° |
| 2026-04-30 08:51 | -43.48541 | 172.54133 | 109 ft | 5 kts | 131° |
| 2026-04-30 08:51 | -43.48557 | 172.54160 | 109 ft | 6 kts | 131° |
| 2026-04-30 08:51 | -43.48584 | 172.54201 | 110 ft | 7 kts | 136° |
| 2026-04-30 08:51 | -43.48614 | 172.54219 | 110 ft | 3 kts | 202° |
| 2026-04-30 08:52 | -43.48637 | 172.54189 | 111 ft | 7 kts | 228° |
| 2026-04-30 08:52 | -43.48662 | 172.54151 | 113 ft | 0 kts | 226° |